sensor_id;sensor_type;location;lat;lon;timestamp;pressure;altitude;pressure_sealevel;temperature;humidity
77207;BME280;66190;50.708;7.906;2024-01-06T00:02:07;95038.19;;;4.28;100.00
77207;BME280;66190;50.708;7.906;2024-01-06T00:04:32;95046.63;;;4.32;100.00
77207;BME280;66190;50.708;7.906;2024-01-06T00:06:58;95046.94;;;4.16;100.00
77207;BME280;66190;50.708;7.906;2024-01-06T00:09:23;95049.19;;;4.19;100.00
77207;BME280;66190;50.708;7.906;2024-01-06T00:11:49;95043.72;;;4.20;100.00
77207;BME280;66190;50.708;7.906;2024-01-06T00:14:14;95046.13;;;4.15;100.00
77207;BME280;66190;50.708;7.906;2024-01-06T00:16:40;95047.34;;;4.13;100.00
77207;BME280;66190;50.708;7.906;2024-01-06T00:19:05;95043.88;;;4.19;100.00
77207;BME280;66190;50.708;7.906;2024-01-06T00:21:31;95046.13;;;4.15;100.00
77207;BME280;66190;50.708;7.906;2024-01-06T00:23:56;95052.28;;;4.22;100.00
77207;BME280;66190;50.708;7.906;2024-01-06T00:26:22;95047.09;;;4.01;100.00
77207;BME280;66190;50.708;7.906;2024-01-06T00:28:47;95046.91;;;4.09;100.00
77207;BME280;66190;50.708;7.906;2024-01-06T00:31:16;95045.25;;;4.08;100.00
77207;BME280;66190;50.708;7.906;2024-01-06T00:33:45;95048.75;;;4.09;100.00
77207;BME280;66190;50.708;7.906;2024-01-06T00:36:10;95046.69;;;4.04;100.00
77207;BME280;66190;50.708;7.906;2024-01-06T00:38:36;95055.53;;;4.11;100.00
77207;BME280;66190;50.708;7.906;2024-01-06T00:41:01;95046.94;;;4.16;100.00
77207;BME280;66190;50.708;7.906;2024-01-06T00:43:27;95052.66;;;4.13;100.00
77207;BME280;66190;50.708;7.906;2024-01-06T00:45:52;95048.97;;;4.14;100.00
77207;BME280;66190;50.708;7.906;2024-01-06T00:48:18;95052.91;;;4.18;100.00
77207;BME280;66190;50.708;7.906;2024-01-06T00:50:43;95053.72;;;4.18;100.00
77207;BME280;66190;50.708;7.906;2024-01-06T00:53:09;95056.81;;;4.22;100.00
77207;BME280;66190;50.708;7.906;2024-01-06T00:55:34;95046.53;;;4.19;100.00
77207;BME280;66190;50.708;7.906;2024-01-06T00:58:00;95051.72;;;4.27;100.00
77207;BME280;66190;50.708;7.906;2024-01-06T01:00:25;95051.72;;;4.27;100.00
77207;BME280;66190;50.708;7.906;2024-01-06T01:02:52;95052.50;;;4.21;100.00
77207;BME280;66190;50.708;7.906;2024-01-06T01:05:18;95049.28;;;4.32;100.00
77207;BME280;66190;50.708;7.906;2024-01-06T01:07:45;95049.09;;;4.40;100.00
77207;BME280;66190;50.708;7.906;2024-01-06T01:10:11;95052.53;;;4.27;100.00
77207;BME280;66190;50.708;7.906;2024-01-06T01:12:36;95061.72;;;4.25;100.00
77207;BME280;66190;50.708;7.906;2024-01-06T01:15:02;95065.47;;;4.37;100.00
77207;BME280;66190;50.708;7.906;2024-01-06T01:17:28;95066.09;;;4.39;100.00
77207;BME280;66190;50.708;7.906;2024-01-06T01:19:54;95063.03;;;4.42;100.00
77207;BME280;66190;50.708;7.906;2024-01-06T01:22:19;95060.78;;;4.45;100.00
77207;BME280;66190;50.708;7.906;2024-01-06T01:24:45;95068.75;;;4.39;100.00
77207;BME280;66190;50.708;7.906;2024-01-06T01:27:10;95073.91;;;4.47;100.00
77207;BME280;66190;50.708;7.906;2024-01-06T01:29:35;95072.44;;;4.38;100.00
77207;BME280;66190;50.708;7.906;2024-01-06T01:32:01;95072.47;;;4.44;100.00
77207;BME280;66190;50.708;7.906;2024-01-06T01:34:26;95080.47;;;4.44;100.00
77207;BME280;66190;50.708;7.906;2024-01-06T01:36:52;95081.25;;;4.45;100.00
77207;BME280;66190;50.708;7.906;2024-01-06T01:39:17;95079.84;;;4.42;100.00
77207;BME280;66190;50.708;7.906;2024-01-06T01:41:43;95076.97;;;4.44;100.00
77207;BME280;66190;50.708;7.906;2024-01-06T01:44:08;95076.97;;;4.44;100.00
77207;BME280;66190;50.708;7.906;2024-01-06T01:46:33;95070.63;;;4.45;100.00
77207;BME280;66190;50.708;7.906;2024-01-06T01:49:01;95080.03;;;4.41;100.00
77207;BME280;66190;50.708;7.906;2024-01-06T01:51:31;95079.84;;;4.42;100.00
77207;BME280;66190;50.708;7.906;2024-01-06T01:53:59;95090.28;;;4.44;99.95
77207;BME280;66190;50.708;7.906;2024-01-06T01:56:25;95090.91;;;4.46;100.00
77207;BME280;66190;50.708;7.906;2024-01-06T01:58:51;95097.84;;;4.40;100.00
77207;BME280;66190;50.708;7.906;2024-01-06T02:01:17;95093.97;;;4.43;100.00
77207;BME280;66190;50.708;7.906;2024-01-06T02:03:42;95093.72;;;4.38;100.00
77207;BME280;66190;50.708;7.906;2024-01-06T02:06:11;95089.88;;;4.47;100.00
77207;BME280;66190;50.708;7.906;2024-01-06T02:08:37;95092.16;;;4.50;99.68
77207;BME280;66190;50.708;7.906;2024-01-06T02:11:03;95086.84;;;4.50;99.50
77207;BME280;66190;50.708;7.906;2024-01-06T02:13:33;95080.69;;;4.49;99.70
77207;BME280;66190;50.708;7.906;2024-01-06T02:16:00;95083.97;;;4.51;99.41
77207;BME280;66190;50.708;7.906;2024-01-06T02:18:25;95083.34;;;4.49;99.26
77207;BME280;66190;50.708;7.906;2024-01-06T02:20:52;95095.06;;;4.55;99.30
77207;BME280;66190;50.708;7.906;2024-01-06T02:23:20;95097.09;;;4.53;99.21
77207;BME280;66190;50.708;7.906;2024-01-06T02:25:45;95095.59;;;4.44;99.02
77207;BME280;66190;50.708;7.906;2024-01-06T02:28:11;95097.88;;;4.47;99.15
77207;BME280;66190;50.708;7.906;2024-01-06T02:30:36;95099.72;;;4.46;99.19
77207;BME280;66190;50.708;7.906;2024-01-06T02:33:02;95104.47;;;4.57;98.95
77207;BME280;66190;50.708;7.906;2024-01-06T02:35:27;95112.03;;;4.54;98.33
77207;BME280;66190;50.708;7.906;2024-01-06T02:37:53;95111.06;;;4.61;98.61
77207;BME280;66190;50.708;7.906;2024-01-06T02:40:18;95113.28;;;4.58;98.79
77207;BME280;66190;50.708;7.906;2024-01-06T02:42:43;95120.66;;;4.56;98.51
77207;BME280;66190;50.708;7.906;2024-01-06T02:45:09;95124.72;;;4.52;99.01
77207;BME280;66190;50.708;7.906;2024-01-06T02:47:34;95120.22;;;4.52;98.67
77207;BME280;66190;50.708;7.906;2024-01-06T02:50:00;95124.88;;;4.37;99.12
77207;BME280;66190;50.708;7.906;2024-01-06T02:52:25;95117.94;;;4.43;99.31
77207;BME280;66190;50.708;7.906;2024-01-06T02:54:51;95130.22;;;4.44;99.16
77207;BME280;66190;50.708;7.906;2024-01-06T02:57:16;95126.72;;;4.43;98.98
77207;BME280;66190;50.708;7.906;2024-01-06T02:59:42;95130.44;;;4.49;99.04
77207;BME280;66190;50.708;7.906;2024-01-06T03:02:07;95130.28;;;4.57;98.87
77207;BME280;66190;50.708;7.906;2024-01-06T03:04:33;95133.53;;;4.52;98.49
77207;BME280;66190;50.708;7.906;2024-01-06T03:06:58;95138.03;;;4.52;99.21
77207;BME280;66190;50.708;7.906;2024-01-06T03:09:24;95143.38;;;4.52;99.67
77207;BME280;66190;50.708;7.906;2024-01-06T03:11:49;95138.00;;;4.45;99.42
77207;BME280;66190;50.708;7.906;2024-01-06T03:14:14;95144.13;;;4.39;99.85
77207;BME280;66190;50.708;7.906;2024-01-06T03:16:40;95153.56;;;4.42;99.87
77207;BME280;66190;50.708;7.906;2024-01-06T03:19:05;95145.38;;;4.43;100.00
77207;BME280;66190;50.708;7.906;2024-01-06T03:21:31;95145.78;;;4.47;100.00
77207;BME280;66190;50.708;7.906;2024-01-06T03:23:56;95157.44;;;4.39;100.00
77207;BME280;66190;50.708;7.906;2024-01-06T03:26:22;95161.72;;;4.34;100.00
77207;BME280;66190;50.708;7.906;2024-01-06T03:28:50;95154.38;;;4.42;100.00
77207;BME280;66190;50.708;7.906;2024-01-06T03:31:16;95156.41;;;4.34;100.00
77207;BME280;66190;50.708;7.906;2024-01-06T03:33:43;95163.34;;;4.35;100.00
77207;BME280;66190;50.708;7.906;2024-01-06T03:36:09;95163.75;;;4.32;100.00
77207;BME280;66190;50.708;7.906;2024-01-06T03:38:34;95175.03;;;4.34;100.00
77207;BME280;66190;50.708;7.906;2024-01-06T03:41:00;95169.72;;;4.34;100.00
77207;BME280;66190;50.708;7.906;2024-01-06T03:43:25;95172.38;;;4.34;100.00
77207;BME280;66190;50.708;7.906;2024-01-06T03:45:51;95175.59;;;4.29;100.00
77207;BME280;66190;50.708;7.906;2024-01-06T03:48:16;95167.81;;;4.28;100.00
77207;BME280;66190;50.708;7.906;2024-01-06T03:50:42;95180.13;;;4.29;100.00
77207;BME280;66190;50.708;7.906;2024-01-06T03:53:07;95174.00;;;4.35;100.00
77207;BME280;66190;50.708;7.906;2024-01-06T03:55:33;95177.91;;;4.39;100.00
77207;BME280;66190;50.708;7.906;2024-01-06T03:57:59;95186.03;;;4.31;100.00
77207;BME280;66190;50.708;7.906;2024-01-06T04:00:25;95189.19;;;4.41;100.00
77207;BME280;66190;50.708;7.906;2024-01-06T04:02:51;95180.59;;;4.39;100.00
77207;BME280;66190;50.708;7.906;2024-01-06T04:05:16;95188.97;;;4.36;100.00
77207;BME280;66190;50.708;7.906;2024-01-06T04:07:42;95186.84;;;4.25;100.00
77207;BME280;66190;50.708;7.906;2024-01-06T04:10:07;95187.25;;;4.22;100.00
77207;BME280;66190;50.708;7.906;2024-01-06T04:12:33;95193.66;;;4.34;100.00
77207;BME280;66190;50.708;7.906;2024-01-06T04:14:58;95196.69;;;4.31;100.00
77207;BME280;66190;50.708;7.906;2024-01-06T04:17:24;95192.81;;;4.27;100.00
77207;BME280;66190;50.708;7.906;2024-01-06T04:19:51;95188.09;;;4.29;100.00
77207;BME280;66190;50.708;7.906;2024-01-06T04:22:16;95187.28;;;4.28;100.00
77207;BME280;66190;50.708;7.906;2024-01-06T04:24:42;95190.81;;;4.35;100.00
77207;BME280;66190;50.708;7.906;2024-01-06T04:27:07;95190.16;;;4.33;100.00
77207;BME280;66190;50.708;7.906;2024-01-06T04:29:33;95188.13;;;4.35;100.00
77207;BME280;66190;50.708;7.906;2024-01-06T04:31:58;95199.00;;;4.34;100.00
77207;BME280;66190;50.708;7.906;2024-01-06T04:34:24;95203.03;;;4.30;100.00
77207;BME280;66190;50.708;7.906;2024-01-06T04:36:49;95193.44;;;4.29;100.00
77207;BME280;66190;50.708;7.906;2024-01-06T04:39:15;95190.97;;;4.27;100.00
77207;BME280;66190;50.708;7.906;2024-01-06T04:41:40;95186.91;;;4.38;100.00
77207;BME280;66190;50.708;7.906;2024-01-06T04:44:06;95187.50;;;4.33;100.00
77207;BME280;66190;50.708;7.906;2024-01-06T04:46:31;95189.97;;;4.35;100.00
77207;BME280;66190;50.708;7.906;2024-01-06T04:48:57;95189.00;;;4.42;100.00
77207;BME280;66190;50.708;7.906;2024-01-06T04:51:22;95195.34;;;4.41;100.00
77207;BME280;66190;50.708;7.906;2024-01-06T04:53:48;95192.31;;;4.44;100.00
77207;BME280;66190;50.708;7.906;2024-01-06T04:56:13;95201.09;;;4.45;100.00
77207;BME280;66190;50.708;7.906;2024-01-06T04:58:38;95197.13;;;4.34;100.00
77207;BME280;66190;50.708;7.906;2024-01-06T05:01:04;95214.03;;;4.48;100.00
77207;BME280;66190;50.708;7.906;2024-01-06T05:03:30;95202.94;;;4.44;100.00
77207;BME280;66190;50.708;7.906;2024-01-06T05:05:55;95209.72;;;4.47;100.00
77207;BME280;66190;50.708;7.906;2024-01-06T05:08:21;95212.53;;;4.39;100.00
77207;BME280;66190;50.708;7.906;2024-01-06T05:10:48;95210.31;;;4.42;100.00
77207;BME280;66190;50.708;7.906;2024-01-06T05:13:14;95196.56;;;4.39;100.00
77207;BME280;66190;50.708;7.906;2024-01-06T05:15:39;95202.09;;;4.37;100.00
77207;BME280;66190;50.708;7.906;2024-01-06T05:18:05;95187.31;;;4.35;100.00
77207;BME280;66190;50.708;7.906;2024-01-06T05:20:30;95192.63;;;4.35;100.00
77207;BME280;66190;50.708;7.906;2024-01-06T05:22:56;95188.97;;;4.36;100.00
77207;BME280;66190;50.708;7.906;2024-01-06T05:25:21;95186.69;;;4.33;100.00
77207;BME280;66190;50.708;7.906;2024-01-06T05:27:47;95186.78;;;4.46;100.00
77207;BME280;66190;50.708;7.906;2024-01-06T05:30:12;95187.97;;;4.43;100.00
77207;BME280;66190;50.708;7.906;2024-01-06T05:32:38;95195.94;;;4.37;100.00
77207;BME280;66190;50.708;7.906;2024-01-06T05:35:04;95204.34;;;4.40;100.00
77207;BME280;66190;50.708;7.906;2024-01-06T05:37:30;95207.44;;;4.44;100.00
77207;BME280;66190;50.708;7.906;2024-01-06T05:39:56;95212.97;;;4.42;100.00
77207;BME280;66190;50.708;7.906;2024-01-06T05:42:23;95216.84;;;4.40;100.00
77207;BME280;66190;50.708;7.906;2024-01-06T05:44:49;95219.94;;;4.43;100.00
77207;BME280;66190;50.708;7.906;2024-01-06T05:47:14;95224.63;;;4.41;100.00
77207;BME280;66190;50.708;7.906;2024-01-06T05:49:43;95215.84;;;4.41;100.00
77207;BME280;66190;50.708;7.906;2024-01-06T05:52:11;95222.78;;;4.42;100.00
77207;BME280;66190;50.708;7.906;2024-01-06T05:54:40;95218.50;;;4.41;100.00
77207;BME280;66190;50.708;7.906;2024-01-06T05:57:07;95229.78;;;4.43;100.00
77207;BME280;66190;50.708;7.906;2024-01-06T05:59:33;95232.81;;;4.40;100.00
77207;BME280;66190;50.708;7.906;2024-01-06T06:01:58;95232.00;;;4.39;100.00
77207;BME280;66190;50.708;7.906;2024-01-06T06:04:24;95238.75;;;4.42;100.00
77207;BME280;66190;50.708;7.906;2024-01-06T06:06:49;95230.97;;;4.40;100.00
77207;BME280;66190;50.708;7.906;2024-01-06T06:09:15;95234.50;;;4.47;100.00
77207;BME280;66190;50.708;7.906;2024-01-06T06:11:40;95238.00;;;4.48;100.00
77207;BME280;66190;50.708;7.906;2024-01-06T06:14:06;95236.09;;;4.42;100.00
77207;BME280;66190;50.708;7.906;2024-01-06T06:16:31;95241.03;;;4.45;100.00
77207;BME280;66190;50.708;7.906;2024-01-06T06:18:57;95237.75;;;4.43;100.00
77207;BME280;66190;50.708;7.906;2024-01-06T06:21:23;95245.63;;;4.30;100.00
77207;BME280;66190;50.708;7.906;2024-01-06T06:23:49;95249.63;;;4.40;100.00
77207;BME280;66190;50.708;7.906;2024-01-06T06:26:14;95254.09;;;4.40;100.00
77207;BME280;66190;50.708;7.906;2024-01-06T06:28:40;95248.59;;;4.41;100.00
77207;BME280;66190;50.708;7.906;2024-01-06T06:31:06;95259.31;;;4.48;100.00
77207;BME280;66190;50.708;7.906;2024-01-06T06:33:32;95257.41;;;4.42;100.00
77207;BME280;66190;50.708;7.906;2024-01-06T06:35:58;95263.00;;;4.53;100.00
77207;BME280;66190;50.708;7.906;2024-01-06T06:38:25;95270.63;;;4.56;100.00
77207;BME280;66190;50.708;7.906;2024-01-06T06:40:50;95271.81;;;4.54;100.00
77207;BME280;66190;50.708;7.906;2024-01-06T06:43:16;95270.75;;;4.48;100.00
77207;BME280;66190;50.708;7.906;2024-01-06T06:45:41;95266.66;;;4.46;100.00
77207;BME280;66190;50.708;7.906;2024-01-06T06:48:07;95274.06;;;4.50;100.00
77207;BME280;66190;50.708;7.906;2024-01-06T06:50:32;95277.16;;;4.54;100.00
77207;BME280;66190;50.708;7.906;2024-01-06T06:52:58;95277.13;;;4.47;100.00
77207;BME280;66190;50.708;7.906;2024-01-06T06:55:24;95280.16;;;4.44;100.00
77207;BME280;66190;50.708;7.906;2024-01-06T06:57:49;95285.94;;;4.48;100.00
77207;BME280;66190;50.708;7.906;2024-01-06T07:00:15;95301.72;;;4.49;100.00
77207;BME280;66190;50.708;7.906;2024-01-06T07:02:42;95305.22;;;4.50;100.00
77207;BME280;66190;50.708;7.906;2024-01-06T07:05:08;95295.72;;;4.41;100.00
77207;BME280;66190;50.708;7.906;2024-01-06T07:07:33;95299.63;;;4.45;100.00
77207;BME280;66190;50.708;7.906;2024-01-06T07:10:04;95304.78;;;4.46;100.00
77207;BME280;66190;50.708;7.906;2024-01-06T07:12:30;95306.22;;;4.49;100.00
77207;BME280;66190;50.708;7.906;2024-01-06T07:14:56;95313.31;;;4.42;100.00
77207;BME280;66190;50.708;7.906;2024-01-06T07:17:22;95320.13;;;4.44;100.00
77207;BME280;66190;50.708;7.906;2024-01-06T07:19:47;95322.59;;;4.46;100.00
77207;BME280;66190;50.708;7.906;2024-01-06T07:22:14;95328.97;;;4.51;100.00
77207;BME280;66190;50.708;7.906;2024-01-06T07:24:41;95331.06;;;4.56;100.00
77207;BME280;66190;50.708;7.906;2024-01-06T07:27:07;95335.75;;;4.54;100.00
77207;BME280;66190;50.708;7.906;2024-01-06T07:29:32;95341.50;;;4.57;100.00
77207;BME280;66190;50.708;7.906;2024-01-06T07:31:58;95338.16;;;4.49;100.00
77207;BME280;66190;50.708;7.906;2024-01-06T07:34:23;95344.31;;;4.49;100.00
77207;BME280;66190;50.708;7.906;2024-01-06T07:36:50;95351.88;;;4.46;100.00
77207;BME280;66190;50.708;7.906;2024-01-06T07:39:15;95343.94;;;4.52;100.00
77207;BME280;66190;50.708;7.906;2024-01-06T07:41:41;95358.84;;;4.47;100.00
77207;BME280;66190;50.708;7.906;2024-01-06T07:44:06;95348.88;;;4.34;100.00
77207;BME280;66190;50.708;7.906;2024-01-06T07:46:32;95358.19;;;4.45;100.00
77207;BME280;66190;50.708;7.906;2024-01-06T07:48:57;95357.06;;;4.54;100.00
77207;BME280;66190;50.708;7.906;2024-01-06T07:51:23;95354.38;;;4.54;100.00
77207;BME280;66190;50.708;7.906;2024-01-06T07:53:48;95364.41;;;4.52;100.00
77207;BME280;66190;50.708;7.906;2024-01-06T07:56:13;95357.06;;;4.54;100.00
77207;BME280;66190;50.708;7.906;2024-01-06T07:58:39;95362.97;;;4.49;100.00
77207;BME280;66190;50.708;7.906;2024-01-06T08:01:04;95358.53;;;4.56;100.00
77207;BME280;66190;50.708;7.906;2024-01-06T08:03:30;95368.97;;;4.58;100.00
77207;BME280;66190;50.708;7.906;2024-01-06T08:05:55;95374.25;;;4.51;100.00
77207;BME280;66190;50.708;7.906;2024-01-06T08:08:21;95385.16;;;4.56;100.00
77207;BME280;66190;50.708;7.906;2024-01-06T08:10:47;95384.06;;;4.51;100.00
77207;BME280;66190;50.708;7.906;2024-01-06T08:13:12;95394.72;;;4.51;100.00
77207;BME280;66190;50.708;7.906;2024-01-06T08:15:38;95397.53;;;4.43;100.00
77207;BME280;66190;50.708;7.906;2024-01-06T08:18:04;95394.69;;;4.44;100.00
77207;BME280;66190;50.708;7.906;2024-01-06T08:20:29;95394.47;;;4.46;100.00
77207;BME280;66190;50.708;7.906;2024-01-06T08:22:54;95400.63;;;4.46;100.00
77207;BME280;66190;50.708;7.906;2024-01-06T08:25:20;95399.16;;;4.44;100.00
77207;BME280;66190;50.708;7.906;2024-01-06T08:27:45;95407.09;;;4.37;100.00
77207;BME280;66190;50.708;7.906;2024-01-06T08:30:11;95403.75;;;4.50;100.00
77207;BME280;66190;50.708;7.906;2024-01-06T08:32:37;95402.78;;;4.57;100.00
77207;BME280;66190;50.708;7.906;2024-01-06T08:35:03;95405.31;;;4.66;100.00
77207;BME280;66190;50.708;7.906;2024-01-06T08:37:29;95404.25;;;4.60;100.00
77207;BME280;66190;50.708;7.906;2024-01-06T08:39:55;95412.47;;;4.65;100.00
77207;BME280;66190;50.708;7.906;2024-01-06T08:42:20;95415.97;;;4.66;100.00
77207;BME280;66190;50.708;7.906;2024-01-06T08:44:45;95419.06;;;4.69;100.00
77207;BME280;66190;50.708;7.906;2024-01-06T08:47:11;95426.28;;;4.75;100.00
77207;BME280;66190;50.708;7.906;2024-01-06T08:49:37;95426.88;;;4.71;100.00
77207;BME280;66190;50.708;7.906;2024-01-06T08:52:03;95432.97;;;4.64;100.00
77207;BME280;66190;50.708;7.906;2024-01-06T08:54:29;95431.63;;;4.54;100.00
77207;BME280;66190;50.708;7.906;2024-01-06T08:56:54;95439.13;;;4.65;100.00
77207;BME280;66190;50.708;7.906;2024-01-06T08:59:20;95435.47;;;4.73;100.00
77207;BME280;66190;50.708;7.906;2024-01-06T09:01:46;95441.88;;;4.78;100.00
77207;BME280;66190;50.708;7.906;2024-01-06T09:04:11;95445.63;;;4.84;100.00
77207;BME280;66190;50.708;7.906;2024-01-06T09:06:38;95452.19;;;4.60;100.00
77207;BME280;66190;50.708;7.906;2024-01-06T09:09:03;95450.41;;;4.67;100.00
77207;BME280;66190;50.708;7.906;2024-01-06T09:11:29;95451.41;;;4.66;100.00
77207;BME280;66190;50.708;7.906;2024-01-06T09:13:54;95455.75;;;4.67;100.00
77207;BME280;66190;50.708;7.906;2024-01-06T09:16:20;95459.66;;;4.71;100.00
77207;BME280;66190;50.708;7.906;2024-01-06T09:18:45;95460.88;;;4.69;100.00
77207;BME280;66190;50.708;7.906;2024-01-06T09:21:11;95458.91;;;4.56;100.00
77207;BME280;66190;50.708;7.906;2024-01-06T09:23:36;95471.28;;;4.63;100.00
77207;BME280;66190;50.708;7.906;2024-01-06T09:26:02;95473.50;;;4.60;100.00
77207;BME280;66190;50.708;7.906;2024-01-06T09:28:28;95477.59;;;4.84;100.00
77207;BME280;66190;50.708;7.906;2024-01-06T09:30:53;95487.63;;;4.82;100.00
77207;BME280;66190;50.708;7.906;2024-01-06T09:33:21;95487.91;;;4.66;100.00
77207;BME280;66190;50.708;7.906;2024-01-06T09:35:47;95486.69;;;4.68;100.00
77207;BME280;66190;50.708;7.906;2024-01-06T09:38:12;95496.44;;;4.61;100.00
77207;BME280;66190;50.708;7.906;2024-01-06T09:40:42;95499.50;;;4.58;100.00
77207;BME280;66190;50.708;7.906;2024-01-06T09:43:09;95493.03;;;4.67;100.00
77207;BME280;66190;50.708;7.906;2024-01-06T09:45:34;95493.59;;;4.62;100.00
77207;BME280;66190;50.708;7.906;2024-01-06T09:48:06;95493.59;;;4.62;100.00
77207;BME280;66190;50.708;7.906;2024-01-06T09:50:35;95501.47;;;4.71;100.00
77207;BME280;66190;50.708;7.906;2024-01-06T09:53:01;95499.03;;;4.54;100.00
77207;BME280;66190;50.708;7.906;2024-01-06T09:55:31;95504.38;;;4.54;100.00
77207;BME280;66190;50.708;7.906;2024-01-06T09:57:57;95504.38;;;4.54;100.00
77207;BME280;66190;50.708;7.906;2024-01-06T10:00:22;95506.91;;;4.62;100.00
77207;BME280;66190;50.708;7.906;2024-01-06T10:02:48;95509.75;;;4.61;100.00
77207;BME280;66190;50.708;7.906;2024-01-06T10:05:15;95514.75;;;4.49;100.00
77207;BME280;66190;50.708;7.906;2024-01-06T10:07:42;95516.47;;;4.36;100.00
77207;BME280;66190;50.708;7.906;2024-01-06T10:10:09;95515.22;;;4.53;100.00
77207;BME280;66190;50.708;7.906;2024-01-06T10:12:37;95523.47;;;4.58;100.00
77207;BME280;66190;50.708;7.906;2024-01-06T10:15:03;95525.81;;;4.46;100.00
77207;BME280;66190;50.708;7.906;2024-01-06T10:17:29;95522.31;;;4.46;100.00
77207;BME280;66190;50.708;7.906;2024-01-06T10:19:54;95526.81;;;4.31;100.00
77207;BME280;66190;50.708;7.906;2024-01-06T10:22:21;95520.50;;;4.32;100.00
77207;BME280;66190;50.708;7.906;2024-01-06T10:24:47;95525.50;;;4.41;100.00
77207;BME280;66190;50.708;7.906;2024-01-06T10:27:12;95526.81;;;4.45;100.00
77207;BME280;66190;50.708;7.906;2024-01-06T10:29:38;95534.91;;;4.37;100.00
77207;BME280;66190;50.708;7.906;2024-01-06T10:32:04;95538.03;;;4.41;100.00
77207;BME280;66190;50.708;7.906;2024-01-06T10:34:30;95535.56;;;4.39;100.00
77207;BME280;66190;50.708;7.906;2024-01-06T10:36:57;95538.75;;;4.35;100.00
77207;BME280;66190;50.708;7.906;2024-01-06T10:39:23;95538.75;;;4.35;100.00
77207;BME280;66190;50.708;7.906;2024-01-06T10:41:49;95541.91;;;4.24;100.00
77207;BME280;66190;50.708;7.906;2024-01-06T10:44:15;95550.97;;;4.29;99.23
77207;BME280;66190;50.708;7.906;2024-01-06T10:46:41;95549.91;;;4.24;98.60
77207;BME280;66190;50.708;7.906;2024-01-06T10:49:08;95545.31;;;4.03;99.16
77207;BME280;66190;50.708;7.906;2024-01-06T10:51:39;95546.97;;;4.04;99.34
77207;BME280;66190;50.708;7.906;2024-01-06T10:54:05;95553.03;;;4.13;100.00
77207;BME280;66190;50.708;7.906;2024-01-06T10:56:37;95544.31;;;4.04;99.61
77207;BME280;66190;50.708;7.906;2024-01-06T10:59:04;95549.19;;;4.01;99.31
77207;BME280;66190;50.708;7.906;2024-01-06T11:01:30;95560.47;;;4.03;99.02
77207;BME280;66190;50.708;7.906;2024-01-06T11:03:57;95562.84;;;3.83;98.42
77207;BME280;66190;50.708;7.906;2024-01-06T11:06:23;95566.34;;;3.98;98.58
77207;BME280;66190;50.708;7.906;2024-01-06T11:09:03;95573.88;;;4.09;98.26
77207;BME280;66190;50.708;7.906;2024-01-06T11:11:31;95582.56;;;4.03;98.14
77207;BME280;66190;50.708;7.906;2024-01-06T11:16:42;95573.22;;;3.93;96.42
77207;BME280;66190;50.708;7.906;2024-01-06T11:22:18;95563.59;;;3.92;96.42
77207;BME280;66190;50.708;7.906;2024-01-06T11:24:47;95561.13;;;4.05;96.67
77207;BME280;66190;50.708;7.906;2024-01-06T11:27:28;95555.88;;;3.97;96.06
77207;BME280;66190;50.708;7.906;2024-01-06T11:30:00;95554.88;;;3.98;95.63
77207;BME280;66190;50.708;7.906;2024-01-06T11:32:30;95559.84;;;4.01;96.47
77207;BME280;66190;50.708;7.906;2024-01-06T11:35:08;95552.38;;;3.96;97.15
77207;BME280;66190;50.708;7.906;2024-01-06T11:42:47;95551.31;;;3.91;97.64
77207;BME280;66190;50.708;7.906;2024-01-06T11:45:14;95559.84;;;4.01;97.99
77207;BME280;66190;50.708;7.906;2024-01-06T11:47:40;95553.69;;;4.15;98.35
77207;BME280;66190;50.708;7.906;2024-01-06T11:50:12;95568.63;;;3.87;98.57
77207;BME280;66190;50.708;7.906;2024-01-06T11:52:38;95563.97;;;3.89;98.86
77207;BME280;66190;50.708;7.906;2024-01-06T11:55:05;95562.03;;;3.97;99.17
77207;BME280;66190;50.708;7.906;2024-01-06T11:57:33;95555.16;;;4.03;99.31
77207;BME280;66190;50.708;7.906;2024-01-06T11:59:58;95556.53;;;3.99;98.88
77207;BME280;66190;50.708;7.906;2024-01-06T12:02:24;95556.72;;;3.97;99.75
77207;BME280;66190;50.708;7.906;2024-01-06T12:04:53;95553.41;;;4.10;100.00
77207;BME280;66190;50.708;7.906;2024-01-06T12:07:20;95541.47;;;3.91;99.43
77207;BME280;66190;50.708;7.906;2024-01-06T12:10:03;95544.97;;;3.92;99.45
77207;BME280;66190;50.708;7.906;2024-01-06T12:12:28;95549.19;;;4.01;99.76
77207;BME280;66190;50.708;7.906;2024-01-06T12:14:54;95558.81;;;4.02;100.00
77207;BME280;66190;50.708;7.906;2024-01-06T12:17:21;95545.03;;;3.98;99.72
77207;BME280;66190;50.708;7.906;2024-01-06T12:19:47;95544.59;;;3.95;99.82
77207;BME280;66190;50.708;7.906;2024-01-06T12:22:14;95544.59;;;3.95;99.80
77207;BME280;66190;50.708;7.906;2024-01-06T12:24:41;95553.13;;;4.05;99.98
77207;BME280;66190;50.708;7.906;2024-01-06T12:27:10;95548.44;;;4.07;100.00
77207;BME280;66190;50.708;7.906;2024-01-06T12:29:40;95553.22;;;3.97;99.74
77207;BME280;66190;50.708;7.906;2024-01-06T12:32:06;95552.31;;;4.04;100.00
77207;BME280;66190;50.708;7.906;2024-01-06T12:34:32;95551.81;;;4.15;100.00
77207;BME280;66190;50.708;7.906;2024-01-06T12:36:58;95557.97;;;4.16;100.00
77207;BME280;66190;50.708;7.906;2024-01-06T12:39:27;95556.97;;;4.17;100.00
77207;BME280;66190;50.708;7.906;2024-01-06T12:41:54;95554.50;;;4.01;99.64
77207;BME280;66190;50.708;7.906;2024-01-06T12:44:20;95558.91;;;3.94;100.00
77207;BME280;66190;50.708;7.906;2024-01-06T12:46:46;95561.56;;;3.94;100.00
77207;BME280;66190;50.708;7.906;2024-01-06T12:49:12;95566.63;;;3.89;100.00
77207;BME280;66190;50.708;7.906;2024-01-06T12:51:37;95570.00;;;3.97;100.00
77207;BME280;66190;50.708;7.906;2024-01-06T12:54:03;95567.72;;;4.09;100.00
77207;BME280;66190;50.708;7.906;2024-01-06T12:56:29;95567.81;;;4.01;100.00
77207;BME280;66190;50.708;7.906;2024-01-06T12:58:54;95574.13;;;4.00;100.00
77207;BME280;66190;50.708;7.906;2024-01-06T13:01:21;95574.59;;;4.03;100.00
77207;BME280;66190;50.708;7.906;2024-01-06T13:03:46;95578.72;;;4.06;100.00
77207;BME280;66190;50.708;7.906;2024-01-06T13:06:12;95576.34;;;4.11;100.00
77207;BME280;66190;50.708;7.906;2024-01-06T13:08:38;95572.38;;;4.07;100.00